Weather at Pinchgut Lake Water Aerodrome [CLOSED]

Public forecast

Using degrees Celsius for public forecast. Weather courtesy of forecast.io.

Closest aviation weather report (METAR) to Pinchgut Lake Water Aerodrome

Closest report is Stephenville Airport, 27.6 nm (51.1 km) SW. Retrieved 2020/09/30 15:00 UTC (15 minutes ago):

CYJT 301500Z 19007KT 170V280 15SM FEW026 SCT056 BKN085 23/18 A2994 RMK SC1SC3AC1 PRESFR SLP139 DENSITY ALT 1000FT

Closest aviation forecast (TAF) to Pinchgut Lake Water Aerodrome

Closest forecast is Stephenville Airport, 27.6 nm (51.1 km) SW. Retrieved 2020/09/30 12:42 UTC (3 hours ago):

TAF CYJT 301138Z 3012/0112 16005KT P6SM FEW015 SCT060 TEMPO 3012/3024 BKN015 OVC060 BECMG 3014/3016 19018G28KT FM010000 20020G30KT P6SM BKN030 TEMPO 0100/0110 5SM -SHRA BR BKN020 PROB30 0106/0110 2SM -RA BR BKN005 FM011000 22022G32KT P6SM SCT006 TEMPO 0110/0112 BKN006 RMK NXT FCST BY 301800Z